createdAt,value
2018-04-15T00:00:47.577Z,10.22
2018-04-15T00:03:15.409Z,10.18
2018-04-15T00:05:43.097Z,10.04
2018-04-15T00:08:10.960Z,10.09
2018-04-15T00:10:38.602Z,10.12
2018-04-15T00:13:06.277Z,10.07
2018-04-15T00:15:33.869Z,10.04
2018-04-15T00:18:01.518Z,9.64
2018-04-15T00:20:29.183Z,9.64
2018-04-15T00:22:56.820Z,9.74
2018-04-15T00:25:24.482Z,9.83
2018-04-15T00:27:52.141Z,9.89
2018-04-15T00:30:19.835Z,9.92
2018-04-15T00:32:47.452Z,9.93
2018-04-15T00:35:15.107Z,9.92
2018-04-15T00:37:42.732Z,10.09
2018-04-15T00:40:10.392Z,9.96
2018-04-15T00:42:38.017Z,9.87
2018-04-15T00:45:05.727Z,9.89
2018-04-15T00:47:33.374Z,9.70
2018-04-15T00:50:01.035Z,9.47
2018-04-15T00:52:28.701Z,9.66
2018-04-15T00:54:56.295Z,9.42
2018-04-15T00:57:23.965Z,9.25
2018-04-15T00:59:51.620Z,9.43
2018-04-15T01:02:19.345Z,9.33
2018-04-15T01:04:47.004Z,9.36
2018-04-15T01:07:14.716Z,9.26
2018-04-15T01:09:42.397Z,9.43
2018-04-15T01:12:10.097Z,9.19
2018-04-15T01:14:37.780Z,9.39
2018-04-15T01:17:05.528Z,8.94
2018-04-15T01:19:33.295Z,9.05
2018-04-15T01:22:01.008Z,8.93
2018-04-15T01:24:28.693Z,8.86
2018-04-15T01:26:56.400Z,8.94
2018-04-15T01:29:24.126Z,8.85
2018-04-15T01:31:51.754Z,8.81
2018-04-15T01:34:19.401Z,8.77
2018-04-15T01:36:47.022Z,8.62
2018-04-15T01:39:14.672Z,8.71
2018-04-15T01:41:42.253Z,8.64
2018-04-15T01:44:09.852Z,8.63
2018-04-15T01:46:37.480Z,8.60
2018-04-15T01:49:05.143Z,8.62
2018-04-15T01:51:32.735Z,8.72
2018-04-15T01:54:00.320Z,8.95
2018-04-15T01:56:27.940Z,8.79
2018-04-15T01:58:55.520Z,8.78
2018-04-15T02:01:23.148Z,8.68
2018-04-15T02:03:50.741Z,8.63
2018-04-15T02:06:18.372Z,8.61
2018-04-15T02:08:45.943Z,8.65
2018-04-15T02:11:13.773Z,8.50
2018-04-15T02:13:41.384Z,8.31
2018-04-15T02:16:09.120Z,8.52
2018-04-15T02:18:36.720Z,8.57
2018-04-15T02:21:04.392Z,8.45
2018-04-15T02:23:32.780Z,8.44
2018-04-15T02:26:00.454Z,8.42
2018-04-15T02:28:28.140Z,8.51
2018-04-15T02:30:56.337Z,8.39
2018-04-15T02:33:24.065Z,8.43
2018-04-15T02:35:51.645Z,8.43
2018-04-15T02:38:19.542Z,8.27
2018-04-15T02:40:47.788Z,8.48
2018-04-15T02:43:15.549Z,8.11
2018-04-15T02:45:43.206Z,8.28
2018-04-15T02:48:10.812Z,8.25
2018-04-15T02:50:38.460Z,8.09
2018-04-15T02:53:06.303Z,8.10
2018-04-15T02:55:34.186Z,8.07
2018-04-15T02:58:01.830Z,8.00
2018-04-15T03:00:29.419Z,8.01
2018-04-15T03:02:57.049Z,8.07
2018-04-15T03:05:24.692Z,8.11
2018-04-15T03:07:52.359Z,8.10
2018-04-15T03:10:20.146Z,8.11
2018-04-15T03:12:47.764Z,8.17
2018-04-15T03:15:15.385Z,8.02
2018-04-15T03:17:43.046Z,8.05
2018-04-15T03:20:10.712Z,7.92
2018-04-15T03:22:38.351Z,8.06
2018-04-15T03:25:06.002Z,7.88
2018-04-15T03:27:33.602Z,7.88
2018-04-15T03:30:01.286Z,7.55
2018-04-15T03:32:28.898Z,7.72
2018-04-15T03:34:56.534Z,7.71
2018-04-15T03:37:24.139Z,7.82
2018-04-15T03:39:52.090Z,7.81
2018-04-15T03:42:19.734Z,7.70
2018-04-15T03:44:47.311Z,7.61
2018-04-15T03:47:14.995Z,7.65
2018-04-15T03:49:42.592Z,7.75
2018-04-15T03:52:10.224Z,7.69
2018-04-15T03:54:37.951Z,7.56
2018-04-15T03:57:05.603Z,7.75
2018-04-15T03:59:33.239Z,7.59
2018-04-15T04:02:00.874Z,7.59
2018-04-15T04:04:28.603Z,7.64
2018-04-15T04:06:56.926Z,7.52
2018-04-15T04:09:24.568Z,7.57
2018-04-15T04:11:52.397Z,7.70
2018-04-15T04:14:20.035Z,7.57
2018-04-15T04:16:47.660Z,7.55
2018-04-15T04:19:27.097Z,7.53
2018-04-15T04:22:06.408Z,7.72
2018-04-15T04:24:45.802Z,7.45
2018-04-15T04:27:13.639Z,7.63
2018-04-15T04:29:42.182Z,7.62
2018-04-15T04:32:09.793Z,7.71
2018-04-15T04:34:37.708Z,7.61
2018-04-15T04:37:05.382Z,7.37
2018-04-15T04:39:33.011Z,7.54
2018-04-15T04:42:00.609Z,7.70
2018-04-15T04:44:28.376Z,7.66
2018-04-15T04:46:56.149Z,7.70
2018-04-15T04:49:23.799Z,7.78
2018-04-15T04:51:51.425Z,7.85
2018-04-15T04:54:19.600Z,7.70
2018-04-15T04:56:47.532Z,7.57
2018-04-15T04:59:16.000Z,7.66
2018-04-15T05:01:43.772Z,7.47
2018-04-15T05:04:11.429Z,7.49
2018-04-15T05:06:39.190Z,7.71
2018-04-15T05:09:06.854Z,7.66
2018-04-15T05:11:35.286Z,7.51
2018-04-15T05:14:03.099Z,7.61
2018-04-15T05:16:31.460Z,7.79
2018-04-15T05:18:59.222Z,7.92
2018-04-15T05:21:27.005Z,7.77
2018-04-15T05:23:54.623Z,7.88
2018-04-15T05:26:22.610Z,7.90
2018-04-15T05:28:50.203Z,7.97
2018-04-15T05:31:17.973Z,7.99
2018-04-15T05:33:45.581Z,7.80
2018-04-15T05:36:13.376Z,7.91
2018-04-15T05:38:40.976Z,8.05
2018-04-15T05:41:09.506Z,7.92
2018-04-15T05:43:37.082Z,7.89
2018-04-15T05:46:05.058Z,7.86
2018-04-15T05:48:32.637Z,8.12
2018-04-15T05:51:00.479Z,8.07
2018-04-15T05:53:28.151Z,7.94
2018-04-15T05:55:55.792Z,8.00
2018-04-15T05:58:23.697Z,7.91
2018-04-15T06:00:51.293Z,8.14
2018-04-15T06:03:19.304Z,8.24
2018-04-15T06:05:46.918Z,8.21
2018-04-15T06:08:14.556Z,8.43
2018-04-15T06:10:42.296Z,8.47
2018-04-15T06:13:09.946Z,8.46
2018-04-15T06:15:37.678Z,8.34
2018-04-15T06:18:05.443Z,8.48
2018-04-15T06:20:38.536Z,8.67
2018-04-15T06:23:06.195Z,8.77
2018-04-15T06:25:33.919Z,8.94
2018-04-15T06:28:01.784Z,8.73
2018-04-15T06:30:29.393Z,8.89
2018-04-15T06:32:57.024Z,8.98
2018-04-15T06:35:24.681Z,9.12
2018-04-15T06:37:52.521Z,9.20
2018-04-15T06:40:20.385Z,9.13
2018-04-15T06:42:48.027Z,9.20
2018-04-15T06:45:15.851Z,9.42
2018-04-15T06:47:43.516Z,9.27
2018-04-15T06:50:11.147Z,9.36
2018-04-15T06:52:38.952Z,9.44
2018-04-15T06:55:06.553Z,9.58
2018-04-15T06:57:34.218Z,9.54
2018-04-15T07:00:01.898Z,9.70
2018-04-15T07:02:29.671Z,9.86
2018-04-15T07:04:57.527Z,9.97
2018-04-15T07:07:25.181Z,9.91
2018-04-15T07:09:53.233Z,9.98
2018-04-15T07:12:20.853Z,9.76
2018-04-15T07:14:48.682Z,9.89
2018-04-15T07:17:16.346Z,9.90
2018-04-15T07:19:44.832Z,9.98
2018-04-15T07:22:12.435Z,10.17
2018-04-15T07:24:40.087Z,10.00
2018-04-15T07:27:07.707Z,10.01
2018-04-15T07:29:35.354Z,10.03
2018-04-15T07:32:02.986Z,10.28
2018-04-15T07:34:30.664Z,10.36
2018-04-15T07:36:58.422Z,10.51
2018-04-15T07:39:26.090Z,10.62
2018-04-15T07:41:53.824Z,10.57
2018-04-15T07:44:21.497Z,10.57
2018-04-15T07:46:49.205Z,10.63
2018-04-15T07:49:16.819Z,10.76
2018-04-15T07:51:44.474Z,10.71
2018-04-15T07:54:12.080Z,10.66
2018-04-15T07:56:39.785Z,10.71
2018-04-15T07:59:07.380Z,10.85
2018-04-15T08:01:35.080Z,10.86
2018-04-15T08:04:02.728Z,10.94
2018-04-15T08:06:30.427Z,11.04
2018-04-15T08:08:58.091Z,11.12
2018-04-15T08:11:26.357Z,10.99
2018-04-15T08:13:54.064Z,10.93
2018-04-15T08:16:21.686Z,10.88
2018-04-15T08:18:49.295Z,11.04
2018-04-15T08:21:16.959Z,11.25
2018-04-15T08:23:44.633Z,11.33
2018-04-15T08:26:12.313Z,11.45
2018-04-15T08:28:39.996Z,11.48
2018-04-15T08:31:08.232Z,11.60
2018-04-15T08:33:35.937Z,11.67
2018-04-15T08:36:03.589Z,11.79
2018-04-15T08:38:31.233Z,11.89
2018-04-15T08:40:58.908Z,12.08
2018-04-15T08:43:26.587Z,12.15
2018-04-15T08:45:54.267Z,12.20
2018-04-15T08:48:21.974Z,12.34
2018-04-15T08:50:49.676Z,12.28
2018-04-15T08:53:17.406Z,12.26
2018-04-15T08:55:45.105Z,12.61
2018-04-15T08:58:12.755Z,12.74
2018-04-15T09:00:40.388Z,12.71
2018-04-15T09:03:08.109Z,12.88
2018-04-15T09:05:35.714Z,13.12
2018-04-15T09:08:03.361Z,12.95
2018-04-15T09:10:31.028Z,13.37
2018-04-15T09:12:58.637Z,13.26
2018-04-15T09:15:26.301Z,13.16
2018-04-15T09:17:53.939Z,13.55
2018-04-15T09:20:21.629Z,13.76
2018-04-15T09:22:49.247Z,13.68
2018-04-15T09:25:16.925Z,13.85
2018-04-15T09:27:44.576Z,13.82
2018-04-15T09:30:12.325Z,13.73
2018-04-15T09:32:39.992Z,13.98
2018-04-15T09:35:07.613Z,14.10
2018-04-15T09:37:35.276Z,14.43
2018-04-15T09:40:02.987Z,14.12
2018-04-15T09:42:30.696Z,14.55
2018-04-15T09:44:58.314Z,14.40
2018-04-15T09:47:25.982Z,14.62
2018-04-15T09:49:53.628Z,14.71
2018-04-15T09:52:21.327Z,15.08
2018-04-15T09:54:49.036Z,14.87
2018-04-15T09:57:16.659Z,15.30
2018-04-15T09:59:44.372Z,15.20
2018-04-15T10:02:12.022Z,15.07
2018-04-15T10:04:39.709Z,15.36
2018-04-15T10:07:07.335Z,15.51
2018-04-15T10:09:34.978Z,15.78
2018-04-15T10:12:02.603Z,16.22
2018-04-15T10:14:30.256Z,16.00
2018-04-15T10:16:57.935Z,16.35
2018-04-15T10:19:25.591Z,17.09
2018-04-15T10:21:53.261Z,17.49
2018-04-15T10:24:20.932Z,18.03
2018-04-15T10:26:48.632Z,18.64
2018-04-15T10:29:16.336Z,19.13
2018-04-15T10:31:44.794Z,19.64
2018-04-15T10:34:13.399Z,19.91
2018-04-15T10:36:41.070Z,19.41
2018-04-15T10:39:08.699Z,19.14
2018-04-15T10:41:36.454Z,19.32
2018-04-15T10:44:04.150Z,19.54
2018-04-15T10:46:31.801Z,19.42
2018-04-15T10:48:59.437Z,19.11
2018-04-15T10:51:27.043Z,18.91
2018-04-15T10:53:54.740Z,19.40
2018-04-15T10:56:22.431Z,19.51
2018-04-15T10:58:50.077Z,19.35
2018-04-15T11:01:17.757Z,19.42
2018-04-15T11:03:45.540Z,19.59
2018-04-15T11:06:13.208Z,19.54
2018-04-15T11:08:40.882Z,19.57
2018-04-15T11:11:08.679Z,19.86
2018-04-15T11:13:36.280Z,19.96
2018-04-15T11:16:04.071Z,19.96
2018-04-15T11:18:31.745Z,19.74
2018-04-15T11:20:59.401Z,19.61
2018-04-15T11:23:27.056Z,19.86
2018-04-15T11:25:54.773Z,20.28
2018-04-15T11:28:22.397Z,20.50
2018-04-15T11:30:50.061Z,20.47
2018-04-15T11:33:17.701Z,20.56
2018-04-15T11:35:45.399Z,20.95
2018-04-15T11:38:13.090Z,20.77
2018-04-15T11:40:41.338Z,21.02
2018-04-15T11:43:09.050Z,21.32
2018-04-15T11:45:36.808Z,21.50
2018-04-15T11:48:04.533Z,21.42
2018-04-15T11:50:32.256Z,21.72
2018-04-15T11:52:59.906Z,21.91
2018-04-15T11:55:27.616Z,21.92
2018-04-15T11:57:55.292Z,21.95
2018-04-15T12:00:23.075Z,21.93
2018-04-15T12:02:50.775Z,22.04
2018-04-15T12:05:18.447Z,22.56
2018-04-15T12:07:46.192Z,22.27
2018-04-15T12:10:14.920Z,22.46
2018-04-15T12:12:42.835Z,22.38
2018-04-15T12:15:11.284Z,22.95
2018-04-15T12:17:39.237Z,23.08
2018-04-15T12:20:08.309Z,23.15
2018-04-15T12:22:36.017Z,23.24
2018-04-15T12:25:03.984Z,23.16
2018-04-15T12:27:32.162Z,23.36
2018-04-15T12:30:01.248Z,23.08
2018-04-15T12:32:30.583Z,23.09
2018-04-15T12:34:59.125Z,22.93
2018-04-15T12:37:27.625Z,22.97
2018-04-15T12:39:56.371Z,22.94
2018-04-15T12:42:25.917Z,22.72
2018-04-15T12:44:53.684Z,22.77
2018-04-15T12:47:21.741Z,22.75
2018-04-15T12:49:49.739Z,22.72
2018-04-15T12:52:17.798Z,22.87
2018-04-15T12:54:46.774Z,23.13
2018-04-15T12:57:14.874Z,23.13
2018-04-15T12:59:42.738Z,23.36
2018-04-15T13:02:10.801Z,23.17
2018-04-15T13:04:38.920Z,22.89
2018-04-15T13:07:07.137Z,23.27
2018-04-15T13:09:35.174Z,23.15
2018-04-15T13:12:03.219Z,23.08
2018-04-15T13:14:31.259Z,22.91
2018-04-15T13:16:59.186Z,22.90
2018-04-15T13:19:26.821Z,22.92
2018-04-15T13:21:54.763Z,22.77
2018-04-15T13:24:22.612Z,22.95
2018-04-15T13:26:50.335Z,22.85
2018-04-15T13:29:18.471Z,22.75
2018-04-15T13:31:46.321Z,22.66
2018-04-15T13:34:14.184Z,22.66
2018-04-15T13:36:42.637Z,22.58
2018-04-15T13:39:10.341Z,22.51
2018-04-15T13:41:38.201Z,22.43
2018-04-15T13:44:06.126Z,22.41
2018-04-15T13:46:34.967Z,22.35
2018-04-15T13:49:02.728Z,22.29
2018-04-15T13:51:30.630Z,22.47
2018-04-15T13:53:58.252Z,22.47
2018-04-15T13:56:26.262Z,22.35
2018-04-15T13:58:55.626Z,22.41
2018-04-15T14:01:23.233Z,22.51
2018-04-15T14:03:50.959Z,22.34
2018-04-15T14:06:19.981Z,22.38
2018-04-15T14:08:48.042Z,22.32
2018-04-15T14:11:15.742Z,22.58
2018-04-15T14:13:43.386Z,22.86
2018-04-15T14:16:11.327Z,22.95
2018-04-15T14:18:39.028Z,23.03
2018-04-15T14:21:06.965Z,23.09
2018-04-15T14:23:35.015Z,23.03
2018-04-15T14:26:03.073Z,22.85
2018-04-15T14:28:30.854Z,22.88
2018-04-15T14:30:58.525Z,22.72
2018-04-15T14:33:26.190Z,22.63
2018-04-15T14:35:53.926Z,22.54
2018-04-15T14:38:21.916Z,22.50
2018-04-15T14:40:49.665Z,22.40
2018-04-15T14:43:17.525Z,22.52
2018-04-15T14:45:45.372Z,22.60
2018-04-15T14:48:13.636Z,22.48
2018-04-15T14:50:41.338Z,22.50
2018-04-15T14:53:09.125Z,22.48
2018-04-15T14:55:38.132Z,22.32
2018-04-15T14:58:06.136Z,22.34
2018-04-15T15:00:33.962Z,22.31
2018-04-15T15:03:01.626Z,22.30
2018-04-15T15:05:29.591Z,22.12
2018-04-15T15:07:57.598Z,22.07
2018-04-15T15:10:25.743Z,21.99
2018-04-15T15:12:53.609Z,22.03
2018-04-15T15:15:21.663Z,22.00
2018-04-15T15:17:49.325Z,21.89
2018-04-15T15:20:17.602Z,21.89
2018-04-15T15:22:45.379Z,21.77
2018-04-15T15:25:13.237Z,21.74
2018-04-15T15:27:41.508Z,21.92
2018-04-15T15:30:09.278Z,21.91
2018-04-15T15:32:37.136Z,21.92
2018-04-15T15:35:05.111Z,21.64
2018-04-15T15:37:35.394Z,21.55
2018-04-15T15:40:05.949Z,21.67
2018-04-15T15:42:33.730Z,21.60
2018-04-15T15:45:01.907Z,21.50
2018-04-15T15:47:29.523Z,21.36
2018-04-15T15:49:57.381Z,21.33
2018-04-15T15:52:26.235Z,21.25
2018-04-15T15:54:53.972Z,21.28
2018-04-15T15:57:21.768Z,21.10
2018-04-15T15:59:49.606Z,20.91
2018-04-15T16:02:17.340Z,21.10
2018-04-15T16:04:45.147Z,20.65
2018-04-15T16:07:13.734Z,20.39
2018-04-15T16:09:43.845Z,20.31
2018-04-15T16:12:11.547Z,20.12
2018-04-15T16:14:39.209Z,19.98
2018-04-15T16:17:06.897Z,20.00
2018-04-15T16:19:34.560Z,19.81
2018-04-15T16:22:02.262Z,19.66
2018-04-15T16:24:30.361Z,19.66
2018-04-15T16:26:57.988Z,19.37
2018-04-15T16:29:25.626Z,19.31
2018-04-15T16:31:53.341Z,19.54
2018-04-15T16:34:21.673Z,19.21
2018-04-15T16:36:49.371Z,19.02
2018-04-15T16:39:17.423Z,18.98
2018-04-15T16:41:45.363Z,18.86
2018-04-15T16:44:13.078Z,18.93
2018-04-15T16:46:40.942Z,18.73
2018-04-15T16:49:10.600Z,18.72
2018-04-15T16:51:38.242Z,18.75
2018-04-15T16:54:06.103Z,18.71
2018-04-15T16:56:33.766Z,18.58
2018-04-15T16:59:01.543Z,18.46
2018-04-15T17:01:29.223Z,18.41
2018-04-15T17:03:57.412Z,18.29
2018-04-15T17:06:25.683Z,18.31
2018-04-15T17:08:53.328Z,18.29
2018-04-15T17:11:21.171Z,18.30
2018-04-15T17:13:52.862Z,18.15
2018-04-15T17:16:21.354Z,18.03
2018-04-15T17:18:49.135Z,17.95
2018-04-15T17:21:16.939Z,17.81
2018-04-15T17:23:44.729Z,17.91
2018-04-15T17:26:13.604Z,17.81
2018-04-15T17:28:41.646Z,17.73
2018-04-15T17:31:09.355Z,17.66
2018-04-15T17:33:37.254Z,17.68
2018-04-15T17:36:05.017Z,17.73
2018-04-15T17:38:32.823Z,17.60
2018-04-15T17:41:00.498Z,17.57
2018-04-15T17:43:29.081Z,17.40
2018-04-15T17:45:56.929Z,17.40
2018-04-15T17:48:24.779Z,17.31
2018-04-15T17:50:53.835Z,17.37
2018-04-15T17:53:21.575Z,17.14
2018-04-15T17:55:49.327Z,16.97
2018-04-15T17:58:17.048Z,16.90
2018-04-15T18:00:44.738Z,16.85
2018-04-15T18:03:12.395Z,16.86
2018-04-15T18:05:40.327Z,16.81
2018-04-15T18:08:07.946Z,16.92
2018-04-15T18:10:35.796Z,17.02
2018-04-15T18:13:03.439Z,17.02
2018-04-15T18:15:31.173Z,16.84
2018-04-15T18:17:58.856Z,16.72
2018-04-15T18:20:26.577Z,16.43
2018-04-15T18:22:55.327Z,16.24
2018-04-15T18:25:23.120Z,16.49
2018-04-15T18:27:50.852Z,16.51
2018-04-15T18:30:18.531Z,16.52
2018-04-15T18:32:46.294Z,16.50
2018-04-15T18:35:14.171Z,16.66
2018-04-15T18:37:41.984Z,16.68
2018-04-15T18:40:09.619Z,16.58
2018-04-15T18:42:37.341Z,16.36
2018-04-15T18:45:05.097Z,16.35
2018-04-15T18:47:33.345Z,16.40
2018-04-15T18:50:01.189Z,16.39
2018-04-15T18:52:28.895Z,16.49
2018-04-15T18:54:56.524Z,16.30
2018-04-15T18:57:24.489Z,16.19
2018-04-15T18:59:52.250Z,15.96
2018-04-15T19:02:19.939Z,16.02
2018-04-15T19:04:47.685Z,16.20
2018-04-15T19:07:15.395Z,16.11
2018-04-15T19:09:44.115Z,16.07
2018-04-15T19:12:11.992Z,16.11
2018-04-15T19:14:39.754Z,16.16
2018-04-15T19:17:07.656Z,16.27
2018-04-15T19:19:35.805Z,16.22
2018-04-15T19:22:04.080Z,16.25
2018-04-15T19:24:32.243Z,16.21
2018-04-15T19:26:59.988Z,16.31
2018-04-15T19:29:27.750Z,16.19
2018-04-15T19:31:55.461Z,16.39
2018-04-15T19:34:23.221Z,16.23
2018-04-15T19:36:51.264Z,16.03
2018-04-15T19:39:19.011Z,15.83
2018-04-15T19:41:46.756Z,15.77
2018-04-15T19:44:14.496Z,15.66
2018-04-15T19:46:43.731Z,15.61
2018-04-15T19:49:11.581Z,15.47
2018-04-15T19:51:40.304Z,15.50
2018-04-15T19:54:08.180Z,15.48
2018-04-15T19:56:35.943Z,15.47
2018-04-15T19:59:04.841Z,15.54
2018-04-15T20:01:32.658Z,15.49
2018-04-15T20:04:00.527Z,15.31
2018-04-15T20:06:28.595Z,15.18
2018-04-15T20:08:56.713Z,15.18
2018-04-15T20:11:24.360Z,15.26
2018-04-15T20:13:52.448Z,15.19
2018-04-15T20:16:20.437Z,15.20
2018-04-15T20:18:48.574Z,15.12
2018-04-15T20:21:16.763Z,15.00
2018-04-15T20:23:44.617Z,15.01
2018-04-15T20:26:12.489Z,14.94
2018-04-15T20:28:40.580Z,15.02
2018-04-15T20:31:08.271Z,15.14
2018-04-15T20:33:36.034Z,15.15
2018-04-15T20:36:04.571Z,15.02
2018-04-15T20:38:32.398Z,14.88
2018-04-15T20:41:00.149Z,14.88
2018-04-15T20:43:27.804Z,14.82
2018-04-15T20:45:55.706Z,14.81
2018-04-15T20:48:23.431Z,14.76
2018-04-15T20:50:51.140Z,14.86
2018-04-15T20:53:18.835Z,14.81
2018-04-15T20:55:46.515Z,14.71
2018-04-15T20:58:14.144Z,14.74
2018-04-15T21:00:41.861Z,14.60
2018-04-15T21:03:09.615Z,14.69
2018-04-15T21:05:38.412Z,14.86
2018-04-15T21:08:06.082Z,15.01
2018-04-15T21:10:33.796Z,15.17
2018-04-15T21:13:01.459Z,14.93
2018-04-15T21:15:29.177Z,14.73
2018-04-15T21:17:56.771Z,14.63
2018-04-15T21:20:24.418Z,14.70
2018-04-15T21:22:52.108Z,14.73
2018-04-15T21:25:19.826Z,14.39
2018-04-15T21:27:47.456Z,14.47
2018-04-15T21:30:15.114Z,14.49
2018-04-15T21:32:42.798Z,14.47
2018-04-15T21:35:10.407Z,14.55
2018-04-15T21:37:38.075Z,14.53
2018-04-15T21:40:05.666Z,14.46
2018-04-15T21:42:33.341Z,14.52
2018-04-15T21:45:00.971Z,14.57
2018-04-15T21:47:28.658Z,14.41
2018-04-15T21:49:56.294Z,14.24
2018-04-15T21:52:23.870Z,14.13
2018-04-15T21:54:51.532Z,14.08
2018-04-15T21:57:19.308Z,14.29
2018-04-15T21:59:47.041Z,14.25
2018-04-15T22:02:14.657Z,14.16
2018-04-15T22:04:42.304Z,14.06
2018-04-15T22:07:10.012Z,13.93
2018-04-15T22:09:37.635Z,14.03
2018-04-15T22:12:15.234Z,14.10
2018-04-15T22:14:42.911Z,14.23
2018-04-15T22:17:10.555Z,14.39
2018-04-15T22:19:38.253Z,14.28
2018-04-15T22:22:05.859Z,14.20
2018-04-15T22:24:33.542Z,14.18
2018-04-15T22:27:01.279Z,14.33
2018-04-15T22:29:28.951Z,14.35
2018-04-15T22:31:56.596Z,14.15
2018-04-15T22:34:24.230Z,14.12
2018-04-15T22:36:51.822Z,13.90
2018-04-15T22:39:19.503Z,13.85
2018-04-15T22:41:47.144Z,13.75
2018-04-15T22:44:14.765Z,13.48
2018-04-15T22:46:42.427Z,13.62
2018-04-15T22:49:15.464Z,13.73
2018-04-15T22:51:43.129Z,13.68
2018-04-15T22:54:10.747Z,13.70
2018-04-15T22:56:43.373Z,13.70
2018-04-15T22:59:11.037Z,13.80
2018-04-15T23:01:39.330Z,13.72
2018-04-15T23:04:06.976Z,13.70
2018-04-15T23:06:34.620Z,13.76
2018-04-15T23:09:02.213Z,13.75
2018-04-15T23:11:30.011Z,13.67
2018-04-15T23:13:57.647Z,13.59
2018-04-15T23:16:25.329Z,13.55
2018-04-15T23:18:53.020Z,13.53
2018-04-15T23:21:20.640Z,13.55
2018-04-15T23:23:48.328Z,13.61
2018-04-15T23:26:15.975Z,13.56
2018-04-15T23:28:43.561Z,13.60
2018-04-15T23:31:11.228Z,13.63
2018-04-15T23:33:38.906Z,13.58
2018-04-15T23:36:06.504Z,13.62
2018-04-15T23:38:34.113Z,13.51
2018-04-15T23:41:01.787Z,13.50
2018-04-15T23:43:29.382Z,13.50
2018-04-15T23:45:57.153Z,13.53
2018-04-15T23:48:24.739Z,13.62
2018-04-15T23:50:52.379Z,13.64
2018-04-15T23:53:19.986Z,13.62
2018-04-15T23:55:47.586Z,13.53
2018-04-15T23:58:15.397Z,13.45
